sensor_id;sensor_type;location;lat;lon;timestamp;pressure;altitude;pressure_sealevel;temperature;humidity
9676;BME280;4876;42.656;23.292;2022-08-27T00:01:13;94016.53;;;20.08;64.82
9676;BME280;4876;42.656;23.292;2022-08-27T00:03:42;94013.81;;;20.04;65.68
9676;BME280;4876;42.656;23.292;2022-08-27T00:06:11;94007.66;;;19.79;66.65
9676;BME280;4876;42.656;23.292;2022-08-27T00:08:39;94006.88;;;19.71;67.26
9676;BME280;4876;42.656;23.292;2022-08-27T00:11:07;94012.19;;;19.75;67.70
9676;BME280;4876;42.656;23.292;2022-08-27T00:13:34;94007.63;;;19.72;67.66
9676;BME280;4876;42.656;23.292;2022-08-27T00:16:01;94006.88;;;19.71;67.83
9676;BME280;4876;42.656;23.292;2022-08-27T00:18:28;94008.34;;;19.65;67.91
9676;BME280;4876;42.656;23.292;2022-08-27T00:20:55;93999.22;;;19.66;67.80
9676;BME280;4876;42.656;23.292;2022-08-27T00:23:22;94006.84;;;19.68;67.70
9676;BME280;4876;42.656;23.292;2022-08-27T00:25:48;93997.69;;;19.69;67.29
9676;BME280;4876;42.656;23.292;2022-08-27T00:28:17;93999.66;;;19.75;66.83
9676;BME280;4876;42.656;23.292;2022-08-27T00:30:43;93999.25;;;19.73;67.13
9676;BME280;4876;42.656;23.292;2022-08-27T00:33:10;93994.66;;;19.74;67.22
9676;BME280;4876;42.656;23.292;2022-08-27T00:35:37;93989.72;;;19.76;66.97
9676;BME280;4876;42.656;23.292;2022-08-27T00:38:04;93980.13;;;19.60;66.99
9676;BME280;4876;42.656;23.292;2022-08-27T00:40:32;93997.31;;;19.67;67.20
9676;BME280;4876;42.656;23.292;2022-08-27T00:42:59;93998.44;;;19.62;67.66
9676;BME280;4876;42.656;23.292;2022-08-27T00:45:32;93998.84;;;19.71;67.10
9676;BME280;4876;42.656;23.292;2022-08-27T00:48:02;93994.25;;;19.68;67.24
9676;BME280;4876;42.656;23.292;2022-08-27T00:50:35;93995.75;;;19.62;67.47
9676;BME280;4876;42.656;23.292;2022-08-27T00:53:07;93999.56;;;19.61;66.81
9676;BME280;4876;42.656;23.292;2022-08-27T00:55:38;94003.00;;;19.61;66.64
9676;BME280;4876;42.656;23.292;2022-08-27T00:58:11;93992.31;;;19.61;66.42
9676;BME280;4876;42.656;23.292;2022-08-27T01:00:41;93993.03;;;19.55;66.14
9676;BME280;4876;42.656;23.292;2022-08-27T01:03:09;93993.84;;;19.62;66.30
9676;BME280;4876;42.656;23.292;2022-08-27T01:05:36;93991.97;;;19.63;66.20
9676;BME280;4876;42.656;23.292;2022-08-27T01:08:07;93999.97;;;19.63;66.15
9676;BME280;4876;42.656;23.292;2022-08-27T01:10:36;94000.66;;;19.53;66.42
9676;BME280;4876;42.656;23.292;2022-08-27T01:13:05;93983.88;;;19.49;66.39
9676;BME280;4876;42.656;23.292;2022-08-27T01:15:33;93995.34;;;19.56;66.47
9676;BME280;4876;42.656;23.292;2022-08-27T01:18:02;93994.13;;;19.43;67.07
9676;BME280;4876;42.656;23.292;2022-08-27T01:20:34;93978.47;;;19.34;67.50
9676;BME280;4876;42.656;23.292;2022-08-27T01:23:10;93996.78;;;19.43;67.77
9676;BME280;4876;42.656;23.292;2022-08-27T01:25:42;93997.53;;;19.36;67.65
9676;BME280;4876;42.656;23.292;2022-08-27T01:28:10;93996.00;;;19.32;67.89
9676;BME280;4876;42.656;23.292;2022-08-27T01:30:37;93989.94;;;19.39;68.02
9676;BME280;4876;42.656;23.292;2022-08-27T01:33:08;93997.09;;;19.27;68.42
9676;BME280;4876;42.656;23.292;2022-08-27T01:35:35;93993.28;;;19.28;68.61
9676;BME280;4876;42.656;23.292;2022-08-27T01:38:03;93999.38;;;19.29;68.64
9676;BME280;4876;42.656;23.292;2022-08-27T01:40:30;94003.56;;;19.26;68.82
9676;BME280;4876;42.656;23.292;2022-08-27T01:42:58;94001.66;;;19.27;68.82
9676;BME280;4876;42.656;23.292;2022-08-27T01:45:27;94004.34;;;19.27;68.84
9676;BME280;4876;42.656;23.292;2022-08-27T01:47:54;94001.69;;;19.30;68.72
9676;BME280;4876;42.656;23.292;2022-08-27T01:50:24;93979.13;;;19.14;68.99
9676;BME280;4876;42.656;23.292;2022-08-27T01:52:52;93996.69;;;19.25;69.04
9676;BME280;4876;42.656;23.292;2022-08-27T01:55:22;94007.34;;;19.25;68.98
9676;BME280;4876;42.656;23.292;2022-08-27T01:57:49;94003.94;;;19.25;68.97
9676;BME280;4876;42.656;23.292;2022-08-27T02:00:20;94000.47;;;19.17;68.94
9676;BME280;4876;42.656;23.292;2022-08-27T02:02:48;94004.28;;;19.16;68.94
9676;BME280;4876;42.656;23.292;2022-08-27T02:05:16;94004.97;;;19.06;69.31
9676;BME280;4876;42.656;23.292;2022-08-27T02:07:44;94005.31;;;19.01;69.55
9676;BME280;4876;42.656;23.292;2022-08-27T02:10:14;94006.06;;;18.98;69.65
9676;BME280;4876;42.656;23.292;2022-08-27T02:12:41;93996.91;;;18.99;69.47
9676;BME280;4876;42.656;23.292;2022-08-27T02:15:09;94004.81;;;18.85;70.44
9676;BME280;4876;42.656;23.292;2022-08-27T02:17:37;94003.63;;;18.78;70.66
9676;BME280;4876;42.656;23.292;2022-08-27T02:20:06;94009.94;;;18.63;71.40
9676;BME280;4876;42.656;23.292;2022-08-27T02:22:36;94005.63;;;18.48;72.09
9676;BME280;4876;42.656;23.292;2022-08-27T02:25:03;94015.91;;;18.46;72.72
9676;BME280;4876;42.656;23.292;2022-08-27T02:27:31;94015.16;;;18.49;72.56
9676;BME280;4876;42.656;23.292;2022-08-27T02:29:58;94009.88;;;18.52;72.65
9676;BME280;4876;42.656;23.292;2022-08-27T02:32:25;94013.31;;;18.53;72.65
9676;BME280;4876;42.656;23.292;2022-08-27T02:34:53;94018.28;;;18.58;72.30
9676;BME280;4876;42.656;23.292;2022-08-27T02:37:20;94011.81;;;18.59;72.18
9676;BME280;4876;42.656;23.292;2022-08-27T02:39:47;94013.34;;;18.60;72.26
9676;BME280;4876;42.656;23.292;2022-08-27T02:42:14;94023.63;;;18.58;72.15
9676;BME280;4876;42.656;23.292;2022-08-27T02:44:40;94029.75;;;18.66;71.43
9676;BME280;4876;42.656;23.292;2022-08-27T02:47:07;94026.28;;;18.62;71.56
9676;BME280;4876;42.656;23.292;2022-08-27T02:49:34;94034.38;;;18.69;71.73
9676;BME280;4876;42.656;23.292;2022-08-27T02:52:03;94028.28;;;18.68;71.88
9676;BME280;4876;42.656;23.292;2022-08-27T02:54:29;94024.00;;;18.60;72.21
9676;BME280;4876;42.656;23.292;2022-08-27T02:56:57;94023.56;;;18.51;72.61
9676;BME280;4876;42.656;23.292;2022-08-27T02:59:24;94030.47;;;18.59;71.98
9676;BME280;4876;42.656;23.292;2022-08-27T03:01:51;94023.47;;;18.44;72.24
9676;BME280;4876;42.656;23.292;2022-08-27T03:04:18;94028.78;;;18.40;73.15
9676;BME280;4876;42.656;23.292;2022-08-27T03:06:47;94005.66;;;18.11;74.01
9676;BME280;4876;42.656;23.292;2022-08-27T03:09:15;94036.59;;;18.22;74.20
9676;BME280;4876;42.656;23.292;2022-08-27T03:11:42;94025.81;;;18.08;74.36
9676;BME280;4876;42.656;23.292;2022-08-27T03:14:08;94033.56;;;18.24;73.93
9676;BME280;4876;42.656;23.292;2022-08-27T03:16:36;94019.03;;;18.18;73.94
9676;BME280;4876;42.656;23.292;2022-08-27T03:19:03;94027.44;;;18.20;74.14
9676;BME280;4876;42.656;23.292;2022-08-27T03:21:32;94036.97;;;18.21;74.46
9676;BME280;4876;42.656;23.292;2022-08-27T03:23:59;94041.84;;;18.15;74.89
9676;BME280;4876;42.656;23.292;2022-08-27T03:26:28;94031.91;;;18.12;74.92
9676;BME280;4876;42.656;23.292;2022-08-27T03:28:56;94038.38;;;18.11;74.87
9676;BME280;4876;42.656;23.292;2022-08-27T03:31:24;94037.47;;;18.00;75.22
9676;BME280;4876;42.656;23.292;2022-08-27T03:33:52;94038.16;;;17.93;75.45
9676;BME280;4876;42.656;23.292;2022-08-27T03:36:19;94042.34;;;17.91;75.35
9676;BME280;4876;42.656;23.292;2022-08-27T03:38:46;94042.00;;;17.96;75.29
9676;BME280;4876;42.656;23.292;2022-08-27T03:41:13;94040.88;;;17.97;75.14
9676;BME280;4876;42.656;23.292;2022-08-27T03:43:44;94047.38;;;17.99;75.22
9676;BME280;4876;42.656;23.292;2022-08-27T03:46:12;94047.34;;;17.96;75.39
9676;BME280;4876;42.656;23.292;2022-08-27T03:48:39;94047.03;;;18.05;75.34
9676;BME280;4876;42.656;23.292;2022-08-27T03:51:07;94048.31;;;18.14;74.82
9676;BME280;4876;42.656;23.292;2022-08-27T03:53:35;94048.31;;;18.14;75.04
9676;BME280;4876;42.656;23.292;2022-08-27T03:56:03;94052.88;;;18.17;74.73
9676;BME280;4876;42.656;23.292;2022-08-27T03:58:31;94054.38;;;18.15;74.75
9676;BME280;4876;42.656;23.292;2022-08-27T04:00:59;94056.97;;;18.08;75.45
9676;BME280;4876;42.656;23.292;2022-08-27T04:03:26;94062.06;;;18.20;74.72
9676;BME280;4876;42.656;23.292;2022-08-27T04:05:53;94062.19;;;18.34;74.46
9676;BME280;4876;42.656;23.292;2022-08-27T04:08:20;94056.22;;;18.48;73.50
9676;BME280;4876;42.656;23.292;2022-08-27T04:10:48;94029.56;;;18.44;72.66
9676;BME280;4876;42.656;23.292;2022-08-27T04:13:15;94066.38;;;18.72;72.07
9676;BME280;4876;42.656;23.292;2022-08-27T04:15:43;94066.16;;;18.92;72.08
9676;BME280;4876;42.656;23.292;2022-08-27T04:18:12;94067.56;;;19.26;71.53
9676;BME280;4876;42.656;23.292;2022-08-27T04:20:41;94068.19;;;19.64;70.21
9676;BME280;4876;42.656;23.292;2022-08-27T04:23:07;94074.09;;;20.09;68.63
9676;BME280;4876;42.656;23.292;2022-08-27T04:25:37;94073.50;;;20.55;67.44
9676;BME280;4876;42.656;23.292;2022-08-27T04:28:04;94075.06;;;20.77;66.66
9676;BME280;4876;42.656;23.292;2022-08-27T04:30:31;94073.53;;;21.19;65.28
9676;BME280;4876;42.656;23.292;2022-08-27T04:32:58;94068.56;;;21.24;65.17
9676;BME280;4876;42.656;23.292;2022-08-27T04:35:27;94078.88;;;20.97;65.88
9676;BME280;4876;42.656;23.292;2022-08-27T04:37:53;94083.09;;;20.88;66.73
9676;BME280;4876;42.656;23.292;2022-08-27T04:40:22;94081.13;;;20.53;66.84
9676;BME280;4876;42.656;23.292;2022-08-27T04:43:09;94076.09;;;20.40;68.38
9676;BME280;4876;42.656;23.292;2022-08-27T04:45:41;94064.63;;;20.36;68.05
9676;BME280;4876;42.656;23.292;2022-08-27T04:48:08;94078.00;;;20.36;69.53
9676;BME280;4876;42.656;23.292;2022-08-27T04:50:39;94074.75;;;19.81;73.02
9676;BME280;4876;42.656;23.292;2022-08-27T04:53:07;94078.44;;;19.62;72.70
9676;BME280;4876;42.656;23.292;2022-08-27T04:55:40;94079.47;;;20.16;69.01
9676;BME280;4876;42.656;23.292;2022-08-27T04:58:06;94070.44;;;20.60;66.99
9676;BME280;4876;42.656;23.292;2022-08-27T05:00:33;94086.50;;;20.63;66.30
9676;BME280;4876;42.656;23.292;2022-08-27T05:03:05;94081.56;;;20.87;64.95
9676;BME280;4876;42.656;23.292;2022-08-27T05:05:32;94086.53;;;21.20;64.22
9676;BME280;4876;42.656;23.292;2022-08-27T05:08:01;94090.38;;;21.37;62.87
9676;BME280;4876;42.656;23.292;2022-08-27T05:10:28;94082.72;;;21.39;63.59
9676;BME280;4876;42.656;23.292;2022-08-27T05:12:55;94049.88;;;21.07;63.36
9676;BME280;4876;42.656;23.292;2022-08-27T05:15:21;94088.81;;;21.29;63.09
9676;BME280;4876;42.656;23.292;2022-08-27T05:17:49;94099.16;;;21.45;63.07
9676;BME280;4876;42.656;23.292;2022-08-27T05:20:15;94097.97;;;21.28;63.59
9676;BME280;4876;42.656;23.292;2022-08-27T05:22:44;94092.25;;;21.19;63.66
9676;BME280;4876;42.656;23.292;2022-08-27T05:25:12;94089.56;;;21.15;63.90
9676;BME280;4876;42.656;23.292;2022-08-27T05:27:39;94096.47;;;21.20;64.09
9676;BME280;4876;42.656;23.292;2022-08-27T05:30:07;94101.44;;;21.07;64.84
9676;BME280;4876;42.656;23.292;2022-08-27T05:32:34;94097.25;;;21.31;63.18
9676;BME280;4876;42.656;23.292;2022-08-27T05:35:00;94100.28;;;21.47;62.67
9676;BME280;4876;42.656;23.292;2022-08-27T05:37:27;94099.44;;;21.79;62.18
9676;BME280;4876;42.656;23.292;2022-08-27T05:39:54;94102.59;;;21.49;63.53
9676;BME280;4876;42.656;23.292;2022-08-27T05:42:23;94106.38;;;20.84;64.31
9676;BME280;4876;42.656;23.292;2022-08-27T05:44:50;94094.91;;;20.97;64.94
9676;BME280;4876;42.656;23.292;2022-08-27T05:47:17;94098.34;;;20.91;65.19
9676;BME280;4876;42.656;23.292;2022-08-27T05:49:44;94104.09;;;21.36;63.98
9676;BME280;4876;42.656;23.292;2022-08-27T05:52:11;94097.22;;;21.63;61.49
9676;BME280;4876;42.656;23.292;2022-08-27T05:54:38;94100.25;;;21.55;62.31
9676;BME280;4876;42.656;23.292;2022-08-27T05:57:05;94106.41;;;21.52;62.60
9676;BME280;4876;42.656;23.292;2022-08-27T05:59:33;94101.81;;;21.56;63.52
9676;BME280;4876;42.656;23.292;2022-08-27T06:02:18;94078.88;;;21.08;64.40
9676;BME280;4876;42.656;23.292;2022-08-27T06:04:45;94105.66;;;21.33;63.65
9676;BME280;4876;42.656;23.292;2022-08-27T06:07:13;94106.41;;;21.44;63.32
9676;BME280;4876;42.656;23.292;2022-08-27T06:09:40;94093.00;;;21.59;63.63
9676;BME280;4876;42.656;23.292;2022-08-27T06:12:08;94108.59;;;21.99;62.07
9676;BME280;4876;42.656;23.292;2022-08-27T06:14:36;94117.69;;;22.30;60.43
9676;BME280;4876;42.656;23.292;2022-08-27T06:17:03;94118.97;;;22.78;59.07
9676;BME280;4876;42.656;23.292;2022-08-27T06:19:30;94120.47;;;22.86;59.80
9676;BME280;4876;42.656;23.292;2022-08-27T06:21:59;94119.00;;;22.74;60.06
9676;BME280;4876;42.656;23.292;2022-08-27T06:24:26;94120.47;;;22.82;59.37
9676;BME280;4876;42.656;23.292;2022-08-27T06:26:53;94111.84;;;22.46;61.49
9676;BME280;4876;42.656;23.292;2022-08-27T06:29:21;94119.81;;;22.68;60.14
9676;BME280;4876;42.656;23.292;2022-08-27T06:31:51;94120.25;;;22.55;60.76
9676;BME280;4876;42.656;23.292;2022-08-27T06:34:19;94121.41;;;22.47;60.50
9676;BME280;4876;42.656;23.292;2022-08-27T06:36:46;94126.81;;;22.40;61.38
9676;BME280;4876;42.656;23.292;2022-08-27T06:39:13;94105.75;;;22.46;60.05
9676;BME280;4876;42.656;23.292;2022-08-27T06:41:41;94122.56;;;22.50;59.83
9676;BME280;4876;42.656;23.292;2022-08-27T06:44:08;94124.31;;;22.78;58.58
9676;BME280;4876;42.656;23.292;2022-08-27T06:46:35;94127.97;;;22.39;60.21
9676;BME280;4876;42.656;23.292;2022-08-27T06:49:04;94128.34;;;22.48;60.31
9676;BME280;4876;42.656;23.292;2022-08-27T06:51:34;94112.69;;;22.33;60.55
9676;BME280;4876;42.656;23.292;2022-08-27T06:54:04;94118.91;;;22.85;59.44
9676;BME280;4876;42.656;23.292;2022-08-27T06:56:31;94112.06;;;22.77;59.13
9676;BME280;4876;42.656;23.292;2022-08-27T06:59:00;94116.63;;;22.83;58.64
9676;BME280;4876;42.656;23.292;2022-08-27T07:01:28;94103.94;;;22.98;57.71
9676;BME280;4876;42.656;23.292;2022-08-27T07:03:56;94116.34;;;23.30;57.51
9676;BME280;4876;42.656;23.292;2022-08-27T07:06:26;94121.63;;;23.37;56.63
9676;BME280;4876;42.656;23.292;2022-08-27T07:08:54;94119.13;;;23.60;56.02
9676;BME280;4876;42.656;23.292;2022-08-27T07:11:22;94123.97;;;23.80;55.64
9676;BME280;4876;42.656;23.292;2022-08-27T07:13:49;94099.09;;;24.10;54.60
9676;BME280;4876;42.656;23.292;2022-08-27T07:16:19;94122.47;;;24.09;54.75
9676;BME280;4876;42.656;23.292;2022-08-27T07:18:48;94117.31;;;24.26;55.32
9676;BME280;4876;42.656;23.292;2022-08-27T07:21:15;94113.03;;;23.56;56.41
9676;BME280;4876;42.656;23.292;2022-08-27T07:23:47;94114.78;;;23.29;58.77
9676;BME280;4876;42.656;23.292;2022-08-27T07:26:14;94113.59;;;23.78;56.51
9676;BME280;4876;42.656;23.292;2022-08-27T07:28:43;94113.41;;;23.96;56.32
9676;BME280;4876;42.656;23.292;2022-08-27T07:31:13;94119.41;;;24.45;55.63
9676;BME280;4876;42.656;23.292;2022-08-27T07:33:41;94115.97;;;24.44;57.18
9676;BME280;4876;42.656;23.292;2022-08-27T07:36:08;94094.09;;;24.08;56.39
9676;BME280;4876;42.656;23.292;2022-08-27T07:38:35;94127.75;;;24.20;56.78
9676;BME280;4876;42.656;23.292;2022-08-27T07:41:05;94126.72;;;24.10;57.79
9676;BME280;4876;42.656;23.292;2022-08-27T07:43:32;94131.69;;;24.12;56.90
9676;BME280;4876;42.656;23.292;2022-08-27T07:46:16;94126.56;;;23.87;57.68
9676;BME280;4876;42.656;23.292;2022-08-27T07:48:43;94129.03;;;24.08;57.36
9676;BME280;4876;42.656;23.292;2022-08-27T07:51:13;94131.84;;;24.32;56.63
9676;BME280;4876;42.656;23.292;2022-08-27T07:53:41;94127.41;;;23.80;58.17
9676;BME280;4876;42.656;23.292;2022-08-27T07:56:10;94130.91;;;24.11;56.93
9676;BME280;4876;42.656;23.292;2022-08-27T07:58:37;94138.72;;;24.33;55.84
9676;BME280;4876;42.656;23.292;2022-08-27T08:01:04;94123.84;;;24.25;56.20
9676;BME280;4876;42.656;23.292;2022-08-27T08:03:31;94127.34;;;24.56;54.98
9676;BME280;4876;42.656;23.292;2022-08-27T08:06:02;94136.91;;;24.87;54.01
9676;BME280;4876;42.656;23.292;2022-08-27T08:08:30;94108.06;;;24.61;53.62
9676;BME280;4876;42.656;23.292;2022-08-27T08:10:58;94128.88;;;24.57;55.17
9676;BME280;4876;42.656;23.292;2022-08-27T08:13:27;94125.66;;;24.65;54.05
9676;BME280;4876;42.656;23.292;2022-08-27T08:15:56;94123.69;;;24.96;54.23
9676;BME280;4876;42.656;23.292;2022-08-27T08:18:23;94127.53;;;24.99;54.20
9676;BME280;4876;42.656;23.292;2022-08-27T08:20:50;94120.69;;;24.64;55.28
9676;BME280;4876;42.656;23.292;2022-08-27T08:23:16;94110.91;;;24.77;55.02
9676;BME280;4876;42.656;23.292;2022-08-27T08:25:43;94118.34;;;25.23;54.05
9676;BME280;4876;42.656;23.292;2022-08-27T08:28:10;94120.22;;;25.50;52.97
9676;BME280;4876;42.656;23.292;2022-08-27T08:30:41;94115.06;;;25.36;53.62
9676;BME280;4876;42.656;23.292;2022-08-27T08:33:08;94110.88;;;24.81;55.31
9676;BME280;4876;42.656;23.292;2022-08-27T08:35:36;94111.84;;;25.68;53.24
9676;BME280;4876;42.656;23.292;2022-08-27T08:38:03;94118.75;;;26.12;52.33
9676;BME280;4876;42.656;23.292;2022-08-27T08:40:33;94113.78;;;26.30;51.81
9676;BME280;4876;42.656;23.292;2022-08-27T08:43:01;94122.63;;;26.11;51.87
9676;BME280;4876;42.656;23.292;2022-08-27T08:45:31;94122.78;;;26.44;51.02
9676;BME280;4876;42.656;23.292;2022-08-27T08:48:05;94122.28;;;26.49;50.51
9676;BME280;4876;42.656;23.292;2022-08-27T08:50:36;94118.66;;;26.75;50.31
9676;BME280;4876;42.656;23.292;2022-08-27T08:53:08;94116.97;;;26.65;49.75
9676;BME280;4876;42.656;23.292;2022-08-27T08:55:43;94116.72;;;26.76;48.17
9676;BME280;4876;42.656;23.292;2022-08-27T08:58:17;94109.56;;;26.86;47.12
9676;BME280;4876;42.656;23.292;2022-08-27T09:00:53;94112.69;;;26.84;47.61
9676;BME280;4876;42.656;23.292;2022-08-27T09:03:22;94114.28;;;26.81;47.55
9676;BME280;4876;42.656;23.292;2022-08-27T09:05:53;94095.13;;;26.76;47.14
9676;BME280;4876;42.656;23.292;2022-08-27T09:08:23;94113.59;;;26.77;44.44
9676;BME280;4876;42.656;23.292;2022-08-27T09:10:56;94107.59;;;27.06;42.89
9676;BME280;4876;42.656;23.292;2022-08-27T09:13:27;94113.00;;;27.06;43.45
9676;BME280;4876;42.656;23.292;2022-08-27T09:16:01;94106.44;;;27.40;43.82
9676;BME280;4876;42.656;23.292;2022-08-27T09:18:30;94110.97;;;27.59;42.10
9676;BME280;4876;42.656;23.292;2022-08-27T09:21:05;94109.75;;;27.76;40.94
9676;BME280;4876;42.656;23.292;2022-08-27T09:23:39;94111.38;;;27.74;42.07
9676;BME280;4876;42.656;23.292;2022-08-27T09:26:19;94100.75;;;27.50;41.28
9676;BME280;4876;42.656;23.292;2022-08-27T09:28:46;94098.09;;;27.63;42.58
9676;BME280;4876;42.656;23.292;2022-08-27T09:31:34;94102.19;;;27.71;42.79
9676;BME280;4876;42.656;23.292;2022-08-27T09:34:05;94105.13;;;27.77;41.98
9676;BME280;4876;42.656;23.292;2022-08-27T09:36:32;94096.44;;;27.53;41.87
9676;BME280;4876;42.656;23.292;2022-08-27T09:39:00;94102.75;;;27.79;41.28
9676;BME280;4876;42.656;23.292;2022-08-27T09:41:41;94095.63;;;28.01;40.76
9676;BME280;4876;42.656;23.292;2022-08-27T09:44:10;94094.22;;;28.09;39.79
9676;BME280;4876;42.656;23.292;2022-08-27T09:46:37;94105.84;;;27.94;39.34
9676;BME280;4876;42.656;23.292;2022-08-27T09:49:13;94100.53;;;27.90;38.29
9676;BME280;4876;42.656;23.292;2022-08-27T09:51:42;94102.66;;;27.66;39.35
9676;BME280;4876;42.656;23.292;2022-08-27T09:54:11;94102.81;;;27.92;38.07
9676;BME280;4876;42.656;23.292;2022-08-27T09:56:48;94106.84;;;28.00;37.70
9676;BME280;4876;42.656;23.292;2022-08-27T09:59:20;94098.69;;;28.16;38.15
9676;BME280;4876;42.656;23.292;2022-08-27T10:01:51;94111.19;;;27.81;38.34
9676;BME280;4876;42.656;23.292;2022-08-27T10:04:26;94096.59;;;28.07;37.97
9676;BME280;4876;42.656;23.292;2022-08-27T10:07:09;94104.81;;;28.04;38.65
9676;BME280;4876;42.656;23.292;2022-08-27T10:09:42;94088.63;;;28.16;37.34
9676;BME280;4876;42.656;23.292;2022-08-27T10:12:18;94094.44;;;28.57;36.47
9676;BME280;4876;42.656;23.292;2022-08-27T10:14:50;94094.91;;;28.68;36.43
9676;BME280;4876;42.656;23.292;2022-08-27T10:17:23;94092.09;;;28.59;37.31
9676;BME280;4876;42.656;23.292;2022-08-27T10:20:03;94089.25;;;28.50;37.74
9676;BME280;4876;42.656;23.292;2022-08-27T10:22:39;94105.41;;;28.79;37.49
9676;BME280;4876;42.656;23.292;2022-08-27T10:25:22;94089.59;;;28.23;37.69
9676;BME280;4876;42.656;23.292;2022-08-27T10:28:00;94088.69;;;28.42;37.06
9676;BME280;4876;42.656;23.292;2022-08-27T10:30:45;94094.25;;;28.64;38.06
9676;BME280;4876;42.656;23.292;2022-08-27T10:33:20;94092.53;;;28.70;35.08
9676;BME280;4876;42.656;23.292;2022-08-27T10:35:57;94074.88;;;28.53;34.45
9676;BME280;4876;42.656;23.292;2022-08-27T10:38:31;94096.59;;;28.49;35.88
9676;BME280;4876;42.656;23.292;2022-08-27T10:41:02;94089.13;;;28.40;35.87
9676;BME280;4876;42.656;23.292;2022-08-27T10:43:52;94095.97;;;28.45;35.75
9676;BME280;4876;42.656;23.292;2022-08-27T10:49:31;94091.13;;;28.65;36.00
9676;BME280;4876;42.656;23.292;2022-08-27T10:52:08;94096.13;;;28.92;35.32
9676;BME280;4876;42.656;23.292;2022-08-27T10:54:42;94089.63;;;29.15;35.50
9676;BME280;4876;42.656;23.292;2022-08-27T10:57:16;94084.84;;;29.32;36.55
9676;BME280;4876;42.656;23.292;2022-08-27T10:59:50;94089.09;;;29.08;35.30
9676;BME280;4876;42.656;23.292;2022-08-27T11:02:29;94087.34;;;29.14;35.89
9676;BME280;4876;42.656;23.292;2022-08-27T11:05:04;94082.66;;;29.40;35.56
9676;BME280;4876;42.656;23.292;2022-08-27T11:07:35;94068.47;;;29.36;35.53
9676;BME280;4876;42.656;23.292;2022-08-27T11:10:06;94078.84;;;29.63;34.31
9676;BME280;4876;42.656;23.292;2022-08-27T11:12:40;94081.72;;;29.68;35.31
9676;BME280;4876;42.656;23.292;2022-08-27T11:15:12;94070.38;;;29.61;34.94
9676;BME280;4876;42.656;23.292;2022-08-27T11:17:44;94079.34;;;29.70;35.76
9676;BME280;4876;42.656;23.292;2022-08-27T11:20:14;94074.47;;;29.65;34.57
9676;BME280;4876;42.656;23.292;2022-08-27T11:22:47;94071.25;;;29.58;35.39
9676;BME280;4876;42.656;23.292;2022-08-27T11:25:29;94069.09;;;29.53;35.09
9676;BME280;4876;42.656;23.292;2022-08-27T11:27:59;94067.09;;;29.66;35.64
9676;BME280;4876;42.656;23.292;2022-08-27T11:30:33;94066.00;;;29.76;34.85
9676;BME280;4876;42.656;23.292;2022-08-27T11:33:07;94019.72;;;29.23;34.42
9676;BME280;4876;42.656;23.292;2022-08-27T11:35:48;94061.03;;;29.62;36.35
9676;BME280;4876;42.656;23.292;2022-08-27T11:38:34;94054.16;;;29.83;35.82
9676;BME280;4876;42.656;23.292;2022-08-27T11:41:18;94052.63;;;30.03;34.94
9676;BME280;4876;42.656;23.292;2022-08-27T11:43:51;94062.16;;;30.08;34.83
9676;BME280;4876;42.656;23.292;2022-08-27T11:46:21;94057.06;;;29.88;34.91
9676;BME280;4876;42.656;23.292;2022-08-27T11:48:55;94049.78;;;29.63;33.47
9676;BME280;4876;42.656;23.292;2022-08-27T11:51:28;94051.84;;;29.46;34.69
9676;BME280;4876;42.656;23.292;2022-08-27T11:54:01;94047.28;;;29.43;35.06
9676;BME280;4876;42.656;23.292;2022-08-27T11:56:37;94042.22;;;29.45;35.05
9676;BME280;4876;42.656;23.292;2022-08-27T11:59:20;94049.56;;;29.58;34.97
9676;BME280;4876;42.656;23.292;2022-08-27T12:01:48;94042.31;;;29.55;36.27
9676;BME280;4876;42.656;23.292;2022-08-27T12:04:23;94042.34;;;29.29;34.72
9676;BME280;4876;42.656;23.292;2022-08-27T12:07:01;94037.22;;;29.79;34.46
9676;BME280;4876;42.656;23.292;2022-08-27T12:09:44;94030.44;;;29.96;35.26
9676;BME280;4876;42.656;23.292;2022-08-27T12:12:18;94031.44;;;30.11;35.25
9676;BME280;4876;42.656;23.292;2022-08-27T12:14:51;94030.81;;;29.63;34.74
9676;BME280;4876;42.656;23.292;2022-08-27T12:17:27;94032.78;;;30.07;35.44
9676;BME280;4876;42.656;23.292;2022-08-27T12:20:08;94028.94;;;30.17;34.86
9676;BME280;4876;42.656;23.292;2022-08-27T12:22:51;94028.47;;;30.49;34.07
9676;BME280;4876;42.656;23.292;2022-08-27T12:25:39;94022.34;;;30.58;33.86
9676;BME280;4876;42.656;23.292;2022-08-27T12:28:07;94023.06;;;30.80;33.43
9676;BME280;4876;42.656;23.292;2022-08-27T12:30:37;94023.22;;;30.46;33.05
9676;BME280;4876;42.656;23.292;2022-08-27T12:33:11;94025.91;;;30.15;32.40
9676;BME280;4876;42.656;23.292;2022-08-27T12:35:46;94026.97;;;30.17;32.42
9676;BME280;4876;42.656;23.292;2022-08-27T12:38:17;94017.38;;;30.03;32.73
9676;BME280;4876;42.656;23.292;2022-08-27T12:40:48;94011.91;;;29.94;32.77
9676;BME280;4876;42.656;23.292;2022-08-27T12:43:18;94016.13;;;29.95;33.04
9676;BME280;4876;42.656;23.292;2022-08-27T12:45:47;94010.84;;;30.14;33.21
9676;BME280;4876;42.656;23.292;2022-08-27T12:48:18;94014.41;;;29.89;33.39
9676;BME280;4876;42.656;23.292;2022-08-27T12:50:51;94016.25;;;30.14;33.96
9676;BME280;4876;42.656;23.292;2022-08-27T12:53:31;94008.78;;;30.05;32.87
9676;BME280;4876;42.656;23.292;2022-08-27T12:56:18;94003.44;;;29.92;32.43
9676;BME280;4876;42.656;23.292;2022-08-27T12:58:54;94010.25;;;29.75;33.34
9676;BME280;4876;42.656;23.292;2022-08-27T13:01:35;94007.34;;;29.69;33.38
9676;BME280;4876;42.656;23.292;2022-08-27T13:04:18;94006.72;;;29.87;34.28
9676;BME280;4876;42.656;23.292;2022-08-27T13:06:46;94004.94;;;29.93;33.99
9676;BME280;4876;42.656;23.292;2022-08-27T13:09:13;93998.38;;;30.03;33.86
9676;BME280;4876;42.656;23.292;2022-08-27T13:11:45;93999.50;;;29.93;33.30
9676;BME280;4876;42.656;23.292;2022-08-27T13:14:15;93997.00;;;29.99;33.61
9676;BME280;4876;42.656;23.292;2022-08-27T13:16:48;94003.81;;;30.25;33.12
9676;BME280;4876;42.656;23.292;2022-08-27T13:19:20;94002.72;;;30.23;32.32
9676;BME280;4876;42.656;23.292;2022-08-27T13:21:49;93992.22;;;30.03;32.81
9676;BME280;4876;42.656;23.292;2022-08-27T13:24:19;93990.25;;;30.03;33.79
9676;BME280;4876;42.656;23.292;2022-08-27T13:26:51;93995.75;;;30.13;32.69
9676;BME280;4876;42.656;23.292;2022-08-27T13:29:19;93988.59;;;30.06;32.38